Time;durP1;ratioP1;P1;durP2;ratioP2;P2;SDS_P1;SDS_P2;PMS_P1;PMS_P2;Temp;Humidity;BMP_temperature;BMP_pressure;BME280_temperature;BME280_humidity;BME280_pressure;Samples;Min_cycle;Max_cycle;Signal;HPM_P1;HPM_P2
2022/04/13 00:00:09;;;;;;;;;;;;;;;5.65;63.47;100029.69;5095959;28;19953;-69
2022/04/13 00:02:38;;;;;;;;;;;;;;;5.63;63.78;100021.19;5095825;28;19927;-68
2022/04/13 00:05:07;;;;;;;;;;;;;;;5.67;63.66;100031.44;5077396;28;19924;-69
2022/04/13 00:07:36;;;;;;;;;;;;;;;5.66;63.59;100026.34;5095451;28;19927;-69
2022/04/13 00:10:05;;;;;;;;;;;;;;;5.67;63.87;100028.03;5095758;28;19930;-70
2022/04/13 00:12:34;;;;;;;;;;;;;;;5.62;63.53;100035.53;5095702;28;19920;-69
2022/04/13 00:15:05;;;;;;;;;;;;;;;5.59;63.92;100037.16;5095570;28;19920;-69
2022/04/13 00:17:35;;;;;;;;;;;;;;;5.51;63.98;100034.41;5095261;28;19920;-70
2022/04/13 00:20:05;;;;;;;;;;;;;;;5.30;64.17;100039.78;5095301;28;19927;-70
2022/04/13 00:22:33;;;;;;;;;;;;;;;5.22;64.81;100038.72;5095584;28;19965;-70
2022/04/13 00:25:03;;;;;;;;;;;;;;;5.08;64.62;100037.53;5077367;28;19920;-68
2022/04/13 00:27:31;;;;;;;;;;;;;;;4.89;64.98;100040.38;5095355;28;19920;-69
2022/04/13 00:30:00;;;;;;;;;;;;;;;4.85;65.48;100033.50;5095319;28;19920;-69
2022/04/13 00:32:32;;;;;;;;;;;;;;;4.77;65.07;100034.97;5095017;28;19920;-68
2022/04/13 00:35:04;;;;;;;;;;;;;;;4.74;65.56;100034.88;5094921;28;19920;-70
2022/04/13 00:37:34;;;;;;;;;;;;;;;4.68;65.54;100039.75;5094884;28;20006;-69
2022/04/13 00:40:02;;;;;;;;;;;;;;;4.66;65.89;100031.25;5094905;28;20358;-69
2022/04/13 00:42:31;;;;;;;;;;;;;;;4.61;65.76;100027.75;5095078;28;19927;-69
2022/04/13 00:44:59;;;;;;;;;;;;;;;4.64;65.86;100030.38;5094590;28;19926;-69
2022/04/13 00:47:28;;;;;;;;;;;;;;;4.67;66.14;100033.84;5094700;28;19924;-70
2022/04/13 00:49:58;;;;;;;;;;;;;;;4.79;66.30;100033.34;5094987;28;19924;-69
2022/04/13 00:52:28;;;;;;;;;;;;;;;4.88;65.65;100035.25;5095061;28;19920;-69
2022/04/13 00:54:58;;;;;;;;;;;;;;;4.93;65.73;100041.28;5094829;28;19988;-69
2022/04/13 00:57:28;;;;;;;;;;;;;;;4.98;65.74;100033.03;5094683;28;20011;-69
2022/04/13 00:59:57;;;;;;;;;;;;;;;5.06;65.31;100036.59;5094830;28;20290;-68
2022/04/13 01:02:28;;;;;;;;;;;;;;;5.09;65.37;100035.81;5094737;28;20388;-69
2022/04/13 01:05:00;;;;;;;;;;;;;;;5.07;65.29;100038.31;5094422;28;19955;-68
2022/04/13 01:07:28;;;;;;;;;;;;;;;5.09;65.13;100035.81;5094453;28;20321;-68
2022/04/13 01:09:57;;;;;;;;;;;;;;;5.07;64.81;100040.84;5094358;28;19920;-68
2022/04/13 01:12:26;;;;;;;;;;;;;;;5.12;64.67;100029.19;5094619;28;20012;-69
2022/04/13 01:14:55;;;;;;;;;;;;;;;5.15;64.67;100044.47;5094271;28;19920;-69
2022/04/13 01:17:24;;;;;;;;;;;;;;;5.11;64.31;100037.56;5094190;28;19920;-69
2022/04/13 01:19:54;;;;;;;;;;;;;;;5.11;64.85;100044.34;5076609;28;19924;-69
2022/04/13 01:22:25;;;;;;;;;;;;;;;5.08;64.54;100040.06;5094389;28;19966;-68
2022/04/13 01:24:54;;;;;;;;;;;;;;;5.08;64.42;100045.09;5094046;28;19927;-69
2022/04/13 01:27:23;;;;;;;;;;;;;;;5.05;64.62;100042.50;5094073;28;19927;-69
2022/04/13 01:29:54;;;;;;;;;;;;;;;5.04;64.83;100045.81;5094063;28;19920;-69
2022/04/13 01:32:23;;;;;;;;;;;;;;;5.03;64.74;100038.19;5095511;28;19927;-69
2022/04/13 01:34:53;;;;;;;;;;;;;;;5.03;64.75;100044.13;5095136;28;19924;-68
2022/04/13 01:37:22;;;;;;;;;;;;;;;4.98;64.49;100049.88;5094173;28;20300;-69
2022/04/13 01:39:54;;;;;;;;;;;;;;;4.98;64.67;100045.66;5096048;28;19920;-69
2022/04/13 01:42:22;;;;;;;;;;;;;;;4.90;64.63;100047.13;5100754;28;19927;-69
2022/04/13 01:44:50;;;;;;;;;;;;;;;4.84;65.07;100056.22;5101019;28;20375;-69
2022/04/13 01:47:17;;;;;;;;;;;;;;;4.83;65.28;100054.50;5100621;28;19920;-69
2022/04/13 01:49:46;;;;;;;;;;;;;;;4.87;65.11;100062.19;5100949;28;20397;-69
2022/04/13 01:52:15;;;;;;;;;;;;;;;4.88;65.02;100063.94;5100635;28;19920;-69
2022/04/13 01:54:43;;;;;;;;;;;;;;;4.87;65.00;100052.09;5100634;28;19943;-70
2022/04/13 01:57:13;;;;;;;;;;;;;;;4.80;64.75;100060.31;5100443;28;19919;-68
2022/04/13 01:59:42;;;;;;;;;;;;;;;4.82;65.19;100066.31;5100860;28;20277;-70
2022/04/13 02:02:11;;;;;;;;;;;;;;;4.81;65.04;100066.25;5100503;28;20366;-70
2022/04/13 02:04:40;;;;;;;;;;;;;;;4.79;64.87;100070.41;5100494;28;20006;-69
2022/04/13 02:07:09;;;;;;;;;;;;;;;4.72;65.26;100076.97;5100392;28;20018;-68
2022/04/13 02:09:37;;;;;;;;;;;;;;;4.70;65.57;100071.00;5100869;28;19920;-69
2022/04/13 02:12:06;;;;;;;;;;;;;;;4.71;65.18;100076.09;5100468;28;19927;-69
2022/04/13 02:14:36;;;;;;;;;;;;;;;4.73;65.24;100078.66;5100734;28;19920;-69
2022/04/13 02:17:14;;;;;;;;;;;;;;;4.71;65.10;100072.69;5100722;28;19926;-68
2022/04/13 02:19:43;;;;;;;;;;;;;;;4.69;65.08;100071.81;5100712;28;19920;-68
2022/04/13 02:22:12;;;;;;;;;;;;;;;4.65;65.55;100086.00;5100712;28;19928;-69
2022/04/13 02:25:01;;;;;;;;;;;;;;;4.62;65.46;100092.66;5100225;28;19919;-69
2022/04/13 02:27:30;;;;;;;;;;;;;;;4.56;65.32;100089.94;5100629;28;19927;-69
2022/04/13 02:30:00;;;;;;;;;;;;;;;4.56;65.72;100079.84;5100512;28;19920;-69
2022/04/13 02:32:30;;;;;;;;;;;;;;;4.50;66.09;100087.25;5100389;28;19931;-69
2022/04/13 02:34:58;;;;;;;;;;;;;;;4.53;65.69;100084.81;5100544;28;19926;-69
2022/04/13 02:37:27;;;;;;;;;;;;;;;4.52;65.77;100089.00;5100424;28;19927;-69
2022/04/13 02:39:56;;;;;;;;;;;;;;;4.53;65.41;100100.84;5100165;28;19920;-69
2022/04/13 02:42:24;;;;;;;;;;;;;;;4.54;65.75;100096.63;5100196;28;19927;-69
2022/04/13 02:44:53;;;;;;;;;;;;;;;4.48;65.39;100097.31;5100141;28;19965;-69
2022/04/13 02:47:23;;;;;;;;;;;;;;;4.43;65.62;100087.88;5100090;28;19920;-68
2022/04/13 02:49:52;;;;;;;;;;;;;;;4.44;65.83;100095.50;5100407;28;19929;-69
2022/04/13 02:52:20;;;;;;;;;;;;;;;4.43;66.40;100097.97;5096606;28;19931;-69
2022/04/13 02:54:49;;;;;;;;;;;;;;;4.36;65.90;100098.59;5079309;28;19920;-68
2022/04/13 02:57:17;;;;;;;;;;;;;;;4.34;65.87;100097.72;5097934;28;20369;-69
2022/04/13 02:59:48;;;;;;;;;;;;;;;4.16;66.03;100099.66;5097547;28;19974;-69
2022/04/13 03:02:17;;;;;;;;;;;;;;;4.13;66.38;100104.63;5096788;28;19920;-69
2022/04/13 03:04:48;;;;;;;;;;;;;;;4.12;66.78;100091.13;5096755;28;19955;-69
2022/04/13 03:07:18;;;;;;;;;;;;;;;4.00;66.66;100101.72;5078662;28;19920;-69
2022/04/13 03:09:46;;;;;;;;;;;;;;;4.03;67.04;100096.75;5096676;28;19920;-69
2022/04/13 03:12:15;;;;;;;;;;;;;;;4.00;66.47;100091.63;5097391;28;19920;-69
2022/04/13 03:14:44;;;;;;;;;;;;;;;4.01;67.38;100093.31;5096592;28;19927;-69
2022/04/13 03:17:13;;;;;;;;;;;;;;;4.00;66.49;100096.66;5096522;28;20006;-69
2022/04/13 03:19:41;;;;;;;;;;;;;;;3.97;67.48;100094.03;5096275;28;19924;-69
2022/04/13 03:22:11;;;;;;;;;;;;;;;3.98;67.55;100097.44;5096402;28;19920;-68
2022/04/13 03:24:44;;;;;;;;;;;;;;;3.96;67.19;100089.78;5096281;28;19920;-68
2022/04/13 03:27:13;;;;;;;;;;;;;;;3.91;67.61;100101.41;5096235;28;20384;-69
2022/04/13 03:29:41;;;;;;;;;;;;;;;3.93;67.32;100101.47;5096520;28;19928;-69
2022/04/13 03:32:10;;;;;;;;;;;;;;;3.93;67.83;100099.81;5096166;28;19965;-69
2022/04/13 03:34:39;;;;;;;;;;;;;;;3.85;67.40;100102.88;5096109;28;19920;-68
2022/04/13 03:37:07;;;;;;;;;;;;;;;3.82;67.66;100098.59;5078093;28;20006;-68
2022/04/13 03:39:38;;;;;;;;;;;;;;;3.79;68.06;100102.69;5096016;28;20365;-68
2022/04/13 03:42:07;;;;;;;;;;;;;;;3.74;68.40;100099.97;5096328;28;19920;-69
2022/04/13 03:44:35;;;;;;;;;;;;;;;3.55;67.64;100105.22;5095930;28;19920;-69
2022/04/13 03:47:05;;;;;;;;;;;;;;;3.43;67.88;100109.88;5078531;28;19985;-68
2022/04/13 03:49:34;;;;;;;;;;;;;;;3.38;68.29;100112.22;5095834;28;19962;-67
2022/04/13 03:52:03;;;;;;;;;;;;;;;3.33;68.41;100112.88;5095693;28;19919;-68
2022/04/13 03:54:32;;;;;;;;;;;;;;;3.24;68.41;100117.59;5095762;28;20393;-68
2022/04/13 03:57:02;;;;;;;;;;;;;;;3.25;68.72;100119.31;5096360;28;19973;-70
2022/04/13 03:59:31;;;;;;;;;;;;;;;3.34;69.07;100114.59;5095689;28;19927;-69
2022/04/13 04:02:00;;;;;;;;;;;;;;;3.40;69.59;100124.91;5095900;28;19920;-69
2022/04/13 04:04:29;;;;;;;;;;;;;;;3.50;69.55;100133.66;5095177;28;19920;-70
2022/04/13 04:06:57;;;;;;;;;;;;;;;3.58;69.21;100125.53;5095784;28;19942;-69
2022/04/13 04:09:26;;;;;;;;;;;;;;;3.61;69.02;100125.63;5095469;28;19927;-69
2022/04/13 04:11:54;;;;;;;;;;;;;;;3.65;68.94;100141.72;5095662;28;20271;-70
2022/04/13 04:14:25;;;;;;;;;;;;;;;3.65;68.75;100142.59;5095444;28;20036;-67
2022/04/13 04:16:53;;;;;;;;;;;;;;;3.62;68.91;100142.50;5095399;28;20361;-69
2022/04/13 04:19:22;;;;;;;;;;;;;;;3.63;68.22;100139.16;5095189;28;19920;-70
2022/04/13 04:21:50;;;;;;;;;;;;;;;3.69;68.37;100146.09;5095098;28;19920;-69
2022/04/13 04:24:19;;;;;;;;;;;;;;;3.80;68.48;100143.13;5095083;28;19920;-69
2022/04/13 04:26:47;;;;;;;;;;;;;;;3.87;68.67;100144.16;5095079;28;19920;-69
2022/04/13 04:29:16;;;;;;;;;;;;;;;3.83;68.42;100142.34;5095360;28;20274;-69
2022/04/13 04:31:53;;;;;;;;;;;;;;;3.84;68.39;100147.44;5095045;28;19969;-69
2022/04/13 04:34:24;;;;;;;;;;;;;;;3.88;68.36;100150.94;5095357;28;19920;-69
2022/04/13 04:36:53;;;;;;;;;;;;;;;3.92;67.98;100163.72;5094998;28;19926;-69
2022/04/13 04:39:22;;;;;;;;;;;;;;;3.97;68.07;100163.88;5094802;28;19919;-69
2022/04/13 04:41:50;;;;;;;;;;;;;;;4.01;67.80;100166.53;5094828;28;19920;-69
2022/04/13 04:44:19;;;;;;;;;;;;;;;4.08;68.20;100158.34;5095065;28;19920;-69
2022/04/13 04:46:49;;;;;;;;;;;;;;;4.03;67.44;100164.91;5094756;28;19927;-69
2022/04/13 04:49:17;;;;;;;;;;;;;;;4.02;68.21;100165.75;5095033;28;20007;-69
2022/04/13 04:51:46;;;;;;;;;;;;;;;4.04;68.11;100161.59;5095449;28;19920;-70
2022/04/13 04:54:14;;;;;;;;;;;;;;;4.10;68.37;100170.19;5094888;28;19920;-68
2022/04/13 04:56:43;;;;;;;;;;;;;;;4.24;68.60;100179.06;5094553;28;19920;-69
2022/04/13 04:59:11;;;;;;;;;;;;;;;4.39;67.96;100180.41;5094504;28;19924;-69
2022/04/13 05:01:40;;;;;;;;;;;;;;;4.56;67.64;100180.94;5094551;28;19919;-69
2022/04/13 05:04:10;;;;;;;;;;;;;;;4.64;67.57;100180.38;5094515;28;20006;-68
2022/04/13 05:06:39;;;;;;;;;;;;;;;4.73;67.96;100174.72;5094751;28;19955;-70
2022/04/13 05:09:08;;;;;;;;;;;;;;;4.87;67.67;100183.56;5094909;28;19920;-69
2022/04/13 05:11:36;;;;;;;;;;;;;;;4.96;67.91;100178.81;5094398;28;19958;-68
2022/04/13 05:14:05;;;;;;;;;;;;;;;5.11;67.55;100179.25;5094064;28;19920;-67
2022/04/13 05:16:34;;;;;;;;;;;;;;;5.32;67.30;100190.00;5094589;28;19920;-69
2022/04/13 05:19:03;;;;;;;;;;;;;;;5.51;66.94;100182.91;5076140;28;19920;-69
2022/04/13 05:21:33;;;;;;;;;;;;;;;5.67;66.23;100185.88;5094205;28;19950;-68
2022/04/13 05:24:02;;;;;;;;;;;;;;;5.83;66.09;100189.69;5093840;28;20348;-68
2022/04/13 05:26:30;;;;;;;;;;;;;;;6.03;65.76;100193.63;5094039;28;19920;-69
2022/04/13 05:29:00;;;;;;;;;;;;;;;6.15;65.63;100186.31;5094123;28;19923;-68
2022/04/13 05:31:29;;;;;;;;;;;;;;;6.28;65.48;100195.97;5094046;28;19920;-69
2022/04/13 05:33:58;;;;;;;;;;;;;;;6.48;65.06;100194.75;5094378;28;20365;-70
2022/04/13 05:36:26;;;;;;;;;;;;;;;6.63;64.94;100202.72;5094286;28;20281;-69
2022/04/13 05:38:57;;;;;;;;;;;;;;;6.74;64.53;100198.72;5093898;28;19985;-69
2022/04/13 05:41:25;;;;;;;;;;;;;;;6.93;64.69;100201.69;5094274;28;20372;-69
2022/04/13 05:43:54;;;;;;;;;;;;;;;7.12;64.40;100201.28;5093969;28;19920;-70
2022/04/13 05:46:22;;;;;;;;;;;;;;;7.28;64.01;100203.31;5093834;28;19931;-69
2022/04/13 05:48:51;;;;;;;;;;;;;;;7.42;63.62;100196.81;5093898;28;19920;-69
2022/04/13 05:51:19;;;;;;;;;;;;;;;7.56;62.98;100208.09;5094164;28;20285;-70
2022/04/13 05:53:48;;;;;;;;;;;;;;;7.70;62.53;100203.31;5093849;28;20333;-70
2022/04/13 05:56:18;;;;;;;;;;;;;;;7.88;62.43;100209.59;5093773;28;19920;-69
2022/04/13 05:58:46;;;;;;;;;;;;;;;8.07;61.93;100214.16;5093791;28;19920;-70
2022/04/13 06:01:15;;;;;;;;;;;;;;;8.26;61.42;100211.94;5093956;28;19920;-70
2022/04/13 06:03:44;;;;;;;;;;;;;;;8.49;61.93;100210.69;5093672;28;19926;-70
2022/04/13 06:06:12;;;;;;;;;;;;;;;8.56;61.00;100212.50;5094041;28;20425;-70
2022/04/13 06:08:41;;;;;;;;;;;;;;;8.64;60.21;100216.00;5093629;28;19920;-69
2022/04/13 06:11:10;;;;;;;;;;;;;;;8.78;59.42;100219.63;5093871;28;20301;-69
2022/04/13 06:13:41;;;;;;;;;;;;;;;8.98;58.74;100217.34;5093666;28;19927;-70
2022/04/13 06:16:10;;;;;;;;;;;;;;;9.11;58.72;100220.09;5093590;28;20436;-70
2022/04/13 06:18:38;;;;;;;;;;;;;;;9.23;58.04;100215.19;5094217;28;20329;-70
2022/04/13 06:21:08;;;;;;;;;;;;;;;9.35;57.52;100210.25;5093425;28;19963;-69
2022/04/13 06:23:40;;;;;;;;;;;;;;;9.47;57.28;100214.63;5093295;28;19942;-69
2022/04/13 06:26:09;;;;;;;;;;;;;;;9.53;56.91;100213.81;5094550;28;20010;-69
2022/04/13 06:28:38;;;;;;;;;;;;;;;9.64;55.71;100213.13;5097736;28;19923;-68
2022/04/13 06:31:08;;;;;;;;;;;;;;;9.70;55.67;100217.44;5079351;28;19926;-71
2022/04/13 06:33:36;;;;;;;;;;;;;;;9.83;55.35;100214.19;5099530;28;20286;-69
2022/04/13 06:36:06;;;;;;;;;;;;;;;9.97;55.28;100222.84;5097468;28;19926;-70
2022/04/13 06:38:34;;;;;;;;;;;;;;;10.07;54.89;100214.44;5097032;28;19924;-70
2022/04/13 06:41:03;;;;;;;;;;;;;;;10.16;54.62;100214.56;5097037;28;20370;-69
2022/04/13 06:43:37;;;;;;;;;;;;;;;10.24;54.60;100210.38;5097150;28;19920;-70
2022/04/13 06:46:05;;;;;;;;;;;;;;;10.32;54.60;100215.56;5096964;28;19920;-69
2022/04/13 06:48:36;;;;;;;;;;;;;;;10.54;53.99;100213.19;5096947;28;19919;-69
2022/04/13 06:51:04;;;;;;;;;;;;;;;10.93;54.12;100221.97;5097335;28;19924;-69
2022/04/13 06:53:33;;;;;;;;;;;;;;;11.22;54.42;100221.31;5096807;28;20015;-70
2022/04/13 06:56:01;;;;;;;;;;;;;;;11.44;54.06;100215.44;5096849;28;19920;-69
2022/04/13 06:58:30;;;;;;;;;;;;;;;11.49;53.14;100215.47;5097060;28;19923;-69
2022/04/13 07:00:58;;;;;;;;;;;;;;;11.65;52.39;100214.69;5096775;28;19920;-70
2022/04/13 07:03:27;;;;;;;;;;;;;;;11.66;51.84;100218.94;5095535;28;20003;-69
2022/04/13 07:05:58;;;;;;;;;;;;;;;11.70;51.41;100220.69;5096021;28;20361;-70
2022/04/13 07:08:26;;;;;;;;;;;;;;;11.84;51.87;100223.28;5097091;28;19920;-69
2022/04/13 07:10:55;;;;;;;;;;;;;;;12.04;51.93;100222.47;5087486;28;19924;-68
2022/04/13 07:13:24;;;;;;;;;;;;;;;12.23;51.84;100218.25;5092420;28;20014;-70
2022/04/13 07:15:52;;;;;;;;;;;;;;;12.44;51.38;100212.28;5110924;28;19923;-69
2022/04/13 07:18:21;;;;;;;;;;;;;;;12.63;50.99;100221.69;5097203;28;19923;-70
2022/04/13 07:20:50;;;;;;;;;;;;;;;12.71;51.24;100223.41;5077014;28;20354;-70
2022/04/13 07:23:20;;;;;;;;;;;;;;;12.76;50.59;100213.97;5075647;28;19921;-69
2022/04/13 07:25:48;;;;;;;;;;;;;;;12.73;49.31;100218.25;5075744;28;19974;-68
2022/04/13 07:28:17;;;;;;;;;;;;;;;12.65;48.69;100217.41;5075911;28;19926;-67
2022/04/13 07:30:46;;;;;;;;;;;;;;;12.64;47.54;100220.84;5075910;28;19927;-70
2022/04/13 07:33:14;;;;;;;;;;;;;;;12.65;47.37;100223.38;5075875;28;19924;-70
2022/04/13 07:35:43;;;;;;;;;;;;;;;12.77;47.64;100217.41;5076121;28;19990;-69
2022/04/13 07:38:12;;;;;;;;;;;;;;;12.80;46.38;100227.66;5075088;28;20005;-69
2022/04/13 07:40:42;;;;;;;;;;;;;;;13.01;46.33;100227.63;5074439;28;19977;-69
2022/04/13 07:43:18;;;;;;;;;;;;;;;13.16;45.38;100231.88;5075400;28;19920;-70
2022/04/13 07:45:46;;;;;;;;;;;;;;;13.26;44.29;100234.44;5075328;28;19920;-70
2022/04/13 07:48:16;;;;;;;;;;;;;;;13.37;43.91;100231.81;5075634;28;19925;-69
2022/04/13 07:50:44;;;;;;;;;;;;;;;13.60;43.13;100229.19;5074943;28;19920;-69
2022/04/13 07:53:13;;;;;;;;;;;;;;;13.67;42.68;100234.28;5075014;28;19974;-69
2022/04/13 07:55:43;;;;;;;;;;;;;;;13.59;41.88;100230.03;5075042;28;19927;-68
2022/04/13 07:58:11;;;;;;;;;;;;;;;13.61;42.41;100230.88;5073765;28;19959;-68
2022/04/13 08:00:40;;;;;;;;;;;;;;;13.73;42.73;100228.25;5075219;28;19920;-69
2022/04/13 08:03:09;;;;;;;;;;;;;;;13.82;41.91;100229.06;5075264;28;19925;-69
2022/04/13 08:05:58;;;;;;;;;;;;;;;14.08;41.42;100239.22;5074956;28;20011;-70
2022/04/13 08:08:26;;;;;;;;;;;;;;;14.13;40.92;100234.91;5075114;28;19930;-69
2022/04/13 08:10:56;;;;;;;;;;;;;;;14.25;40.90;100237.41;5091999;28;19919;-69
2022/04/13 08:13:25;;;;;;;;;;;;;;;14.47;40.51;100240.66;5093995;28;20278;-69
2022/04/13 08:16:14;;;;;;;;;;;;;;;14.58;39.10;100241.47;5095840;28;20297;-68
2022/04/13 08:18:44;;;;;;;;;;;;;;;14.71;38.99;100232.75;5091735;28;20450;-68
2022/04/13 08:21:13;;;;;;;;;;;;;;;14.78;39.58;100235.28;5093004;28;19920;-69
2022/04/13 08:23:41;;;;;;;;;;;;;;;14.75;39.32;100234.47;5106930;28;20293;-69
2022/04/13 08:26:11;;;;;;;;;;;;;;;14.88;40.27;100235.19;5115442;28;19957;-68
2022/04/13 08:28:40;;;;;;;;;;;;;;;14.97;39.29;100238.53;5115651;28;19927;-68
2022/04/13 08:31:09;;;;;;;;;;;;;;;15.00;38.87;100229.91;5115267;28;19927;-71
2022/04/13 08:33:38;;;;;;;;;;;;;;;15.12;38.95;100224.66;5105601;28;19920;-71
2022/04/13 08:36:06;;;;;;;;;;;;;;;15.12;37.81;100219.53;5083437;28;19920;-71
2022/04/13 08:38:36;;;;;;;;;;;;;;;15.05;38.29;100218.72;5074611;28;20445;-71
2022/04/13 08:41:12;;;;;;;;;;;;;;;15.13;39.21;100226.38;5074456;28;20351;-70
2022/04/13 08:43:49;;;;;;;;;;;;;;;15.35;39.80;100215.00;5074258;28;19920;-72
2022/04/13 08:46:23;;;;;;;;;;;;;;;15.34;38.43;100218.41;5074748;28;19924;-71
2022/04/13 08:48:52;;;;;;;;;;;;;;;15.23;37.61;100213.41;5074270;28;19939;-71
2022/04/13 08:51:41;;;;;;;;;;;;;;;15.45;38.52;100215.78;5107824;28;19926;-73
2022/04/13 08:54:12;;;;;;;;;;;;;;;15.68;38.03;100208.59;5092994;28;19919;-72
2022/04/13 08:56:40;;;;;;;;;;;;;;;15.76;36.97;100210.22;5076340;28;19920;-70
2022/04/13 08:59:14;;;;;;;;;;;;;;;15.68;36.20;100217.19;5074101;28;19920;-71
2022/04/13 09:01:51;;;;;;;;;;;;;;;15.71;36.58;100212.00;5073820;28;19920;-71
2022/04/13 09:04:22;;;;;;;;;;;;;;;15.87;36.16;100218.66;5076067;28;20385;-72
2022/04/13 09:06:51;;;;;;;;;;;;;;;16.02;36.01;100215.00;5093959;28;20551;-71
2022/04/13 09:09:20;;;;;;;;;;;;;;;16.29;36.15;100217.16;5093619;28;19967;-71
2022/04/13 09:11:50;;;;;;;;;;;;;;;16.45;35.76;100220.38;5094367;28;19920;-71
2022/04/13 09:14:21;;;;;;;;;;;;;;;16.45;35.00;100217.78;5093178;28;19955;-70
2022/04/13 09:16:51;;;;;;;;;;;;;;;16.17;35.53;100211.38;5092783;28;19920;-72
2022/04/13 09:19:20;;;;;;;;;;;;;;;15.97;35.46;100212.50;5114832;28;19920;-72
2022/04/13 09:21:49;;;;;;;;;;;;;;;16.09;35.66;100198.59;5113879;28;19919;-71
2022/04/13 09:24:19;;;;;;;;;;;;;;;16.16;35.19;100209.66;5113943;28;19924;-72
2022/04/13 09:26:48;;;;;;;;;;;;;;;16.33;35.93;100210.25;5097961;28;20007;-71
2022/04/13 09:29:16;;;;;;;;;;;;;;;16.27;35.83;100200.06;5096574;28;20445;-71
2022/04/13 09:31:47;;;;;;;;;;;;;;;16.28;35.94;100202.59;5113615;28;19919;-72
2022/04/13 09:34:16;;;;;;;;;;;;;;;16.34;35.05;100199.09;5114416;28;20014;-71
2022/04/13 09:36:45;;;;;;;;;;;;;;;16.48;35.26;100197.13;5114179;28;19920;-74
2022/04/13 09:39:14;;;;;;;;;;;;;;;16.64;35.23;100194.31;5098401;28;19920;-72
2022/04/13 09:41:43;;;;;;;;;;;;;;;16.80;35.57;100197.44;5093715;28;19927;-74
2022/04/13 09:44:13;;;;;;;;;;;;;;;16.82;35.01;100202.59;5088513;28;19920;-73
2022/04/13 09:46:42;;;;;;;;;;;;;;;16.63;34.87;100196.88;5114374;28;20430;-72
2022/04/13 09:49:13;;;;;;;;;;;;;;;16.65;35.18;100195.16;5114708;28;20430;-71
2022/04/13 09:51:43;;;;;;;;;;;;;;;16.65;34.92;100192.59;5114220;28;19924;-72
2022/04/13 09:54:12;;;;;;;;;;;;;;;16.67;34.50;100188.25;5113826;28;19919;-71
2022/04/13 09:56:44;;;;;;;;;;;;;;;16.57;34.74;100186.69;5114042;28;19972;-72
2022/04/13 09:59:13;;;;;;;;;;;;;;;16.70;35.32;100190.75;5113432;28;19920;-72
2022/04/13 10:01:42;;;;;;;;;;;;;;;16.87;35.61;100186.16;5115723;28;19926;-70
2022/04/13 10:04:23;;;;;;;;;;;;;;;16.96;36.05;100186.00;5107178;28;20266;-71
2022/04/13 10:06:56;;;;;;;;;;;;;;;16.99;35.79;100178.19;5103951;28;19920;-71
2022/04/13 10:09:28;;;;;;;;;;;;;;;17.13;36.82;100183.09;5097237;28;19920;-72
2022/04/13 10:12:01;;;;;;;;;;;;;;;17.22;36.33;100178.63;5097980;28;19927;-73
2022/04/13 10:14:29;;;;;;;;;;;;;;;17.22;35.43;100183.78;5097491;28;20377;-71
2022/04/13 10:17:06;;;;;;;;;;;;;;;17.25;36.01;100173.38;5098304;28;19973;-70
2022/04/13 10:19:35;;;;;;;;;;;;;;;17.48;37.30;100172.06;5098063;28;19950;-71
2022/04/13 10:22:06;;;;;;;;;;;;;;;17.39;35.25;100163.66;5098240;28;19941;-71
2022/04/13 10:24:40;;;;;;;;;;;;;;;17.34;35.53;100165.47;5096410;28;19929;-71
2022/04/13 10:36:19;;;;;;;;;;;;;;;17.35;35.62;100159.41;4705724;23;20011;-64
2022/04/13 10:38:49;;;;;;;;;;;;;;;17.44;35.81;100156.63;4846126;29;20015;-65
2022/04/13 10:41:21;;;;;;;;;;;;;;;17.56;35.68;100152.16;4846247;29;19973;-66
2022/04/13 10:43:52;;;;;;;;;;;;;;;17.47;35.22;100152.31;4846052;29;19972;-64
2022/04/13 10:46:21;;;;;;;;;;;;;;;17.46;34.79;100145.44;4845646;29;19932;-64
2022/04/13 10:48:54;;;;;;;;;;;;;;;17.55;35.69;100153.00;4845984;29;20011;-64
2022/04/13 10:51:26;;;;;;;;;;;;;;;17.76;36.15;100147.38;4846261;29;19928;-64
2022/04/13 10:54:00;;;;;;;;;;;;;;;17.80;35.31;100146.44;4845886;29;19928;-64
2022/04/13 10:56:31;;;;;;;;;;;;;;;17.75;34.65;100141.38;4845838;29;19931;-64
2022/04/13 10:59:03;;;;;;;;;;;;;;;17.86;35.35;100141.13;4845871;29;20401;-64
2022/04/13 11:01:36;;;;;;;;;;;;;;;18.05;35.75;100150.16;4845759;29;19925;-64
2022/04/13 11:04:07;;;;;;;;;;;;;;;18.16;35.68;100140.41;4845775;29;19940;-64
2022/04/13 11:06:37;;;;;;;;;;;;;;;18.18;36.13;100135.19;4845695;29;19925;-64
2022/04/13 11:09:09;;;;;;;;;;;;;;;18.25;35.27;100140.19;4845626;29;20363;-64
2022/04/13 11:11:38;;;;;;;;;;;;;;;18.26;34.56;100135.88;4845688;29;19925;-64
2022/04/13 11:14:17;;;;;;;;;;;;;;;18.17;34.19;100141.25;4844652;29;19981;-64
2022/04/13 11:16:46;;;;;;;;;;;;;;;18.16;34.93;100135.25;4845578;29;19931;-64
2022/04/13 11:34:40;;;;;;;;;;;;;;;18.50;33.83;100099.94;5418772;24;20170;-72
2022/04/13 11:37:12;;;;;;;;;;;;;;;18.48;34.38;100122.38;4846050;29;19924;-71
2022/04/13 11:39:52;;;;;;;;;;;;;;;18.45;34.31;100125.00;4845204;29;19924;-71
2022/04/13 11:42:32;;;;;;;;;;;;;;;18.55;34.35;100123.94;4844559;29;20329;-70
2022/04/13 11:45:02;;;;;;;;;;;;;;;18.68;34.46;100121.88;4845028;29;19947;-71
2022/04/13 11:47:36;;;;;;;;;;;;;;;18.70;35.59;100123.53;4845479;29;20270;-70
2022/04/13 11:50:19;;;;;;;;;;;;;;;18.71;35.01;100120.03;4845163;29;19924;-71
2022/04/13 11:52:50;;;;;;;;;;;;;;;18.77;34.39;100107.84;4845492;29;19963;-71
2022/04/13 11:55:20;;;;;;;;;;;;;;;18.72;33.87;100116.56;4844823;29;19979;-71
2022/04/13 11:58:07;;;;;;;;;;;;;;;18.76;34.08;100111.34;4844800;29;20003;-71
2022/04/13 12:00:40;;;;;;;;;;;;;;;18.86;36.08;100108.44;4837977;29;19924;-70
2022/04/13 12:03:09;;;;;;;;;;;;;;;18.99;35.49;100103.78;4844498;29;19924;-71
2022/04/13 12:05:39;;;;;;;;;;;;;;;19.19;35.21;100106.66;4844423;29;19924;-71
2022/04/13 12:08:13;;;;;;;;;;;;;;;19.12;35.28;100097.38;4844795;29;19931;-70
2022/04/13 12:10:45;;;;;;;;;;;;;;;19.03;35.06;100097.59;4844550;29;19925;-71
2022/04/13 12:13:14;;;;;;;;;;;;;;;19.06;35.32;100090.63;4844592;29;20398;-71
2022/04/13 12:15:47;;;;;;;;;;;;;;;19.11;34.98;100098.25;4844764;29;19924;-71
2022/04/13 12:18:15;;;;;;;;;;;;;;;19.21;35.27;100094.50;4844395;29;19925;-70
2022/04/13 12:20:44;;;;;;;;;;;;;;;19.27;35.03;100090.00;4844468;29;20035;-71
2022/04/13 12:23:18;;;;;;;;;;;;;;;19.47;35.19;100086.84;4843946;29;20466;-70
2022/04/13 12:25:48;;;;;;;;;;;;;;;19.38;35.02;100081.97;4837416;29;19925;-71
2022/04/13 12:28:18;;;;;;;;;;;;;;;19.32;34.84;100072.59;4842977;29;20007;-70
2022/04/13 12:30:54;;;;;;;;;;;;;;;19.30;34.88;100069.22;4844034;29;19929;-69
2022/04/13 12:33:24;;;;;;;;;;;;;;;19.53;35.20;100065.09;4844113;29;19935;-69
2022/04/13 12:35:54;;;;;;;;;;;;;;;19.71;34.96;100065.38;4854257;29;20382;-70
2022/04/13 12:38:26;;;;;;;;;;;;;;;19.62;34.69;100070.00;4845986;29;19923;-70
2022/04/13 12:41:05;;;;;;;;;;;;;;;19.49;34.95;100064.34;4862511;29;19924;-71
2022/04/13 12:43:35;;;;;;;;;;;;;;;19.45;35.83;100062.75;4854762;29;19924;-71
2022/04/13 12:46:10;;;;;;;;;;;;;;;19.40;35.44;100059.44;4861239;29;19928;-70
2022/04/13 12:48:39;;;;;;;;;;;;;;;19.41;35.59;100050.81;4862619;29;19924;-69
2022/04/13 12:51:08;;;;;;;;;;;;;;;19.26;35.06;100051.22;4846013;29;19935;-69
2022/04/13 12:53:48;;;;;;;;;;;;;;;19.20;35.17;100048.81;4861049;29;20345;-70
2022/04/13 12:56:19;;;;;;;;;;;;;;;19.06;35.63;100053.53;4861824;29;19924;-70
2022/04/13 12:58:48;;;;;;;;;;;;;;;18.97;33.86;100053.81;4862250;29;19928;-69
2022/04/13 13:01:23;;;;;;;;;;;;;;;18.84;34.66;100057.63;4860319;29;19927;-69
2022/04/13 13:03:53;;;;;;;;;;;;;;;18.82;34.09;100043.91;4854572;29;19934;-69
2022/04/13 13:06:21;;;;;;;;;;;;;;;18.81;33.54;100048.25;4859051;29;20011;-70
2022/04/13 13:08:54;;;;;;;;;;;;;;;19.05;34.31;100038.94;4861544;29;20019;-72
2022/04/13 13:11:28;;;;;;;;;;;;;;;19.26;35.36;100040.88;4856972;29;19928;-72
2022/04/13 13:14:07;;;;;;;;;;;;;;;19.44;36.70;100035.16;4862327;29;20386;-71
2022/04/13 13:16:43;;;;;;;;;;;;;;;19.59;36.89;100037.28;4853501;29;20408;-72
2022/04/13 13:19:14;;;;;;;;;;;;;;;19.72;36.67;100040.31;4853717;29;19924;-71
2022/04/13 13:21:53;;;;;;;;;;;;;;;19.71;36.06;100036.88;4859515;29;19984;-71